createdAt,value
2022-08-26T00:00:40.525Z,75.85
2022-08-26T00:03:03.727Z,76.26
2022-08-26T00:05:27.200Z,75.92
2022-08-26T00:07:49.984Z,75.92
2022-08-26T00:10:14.408Z,76.19
2022-08-26T00:12:37.785Z,76.33
2022-08-26T00:15:00.794Z,76.71
2022-08-26T00:17:24.189Z,76.54
2022-08-26T00:19:49.278Z,76.70
2022-08-26T00:22:20.240Z,76.77
2022-08-26T00:24:47.860Z,76.92
2022-08-26T00:27:10.716Z,77.73
2022-08-26T00:29:34.945Z,77.10
2022-08-26T00:32:01.488Z,76.95
2022-08-26T00:34:26.600Z,76.95
2022-08-26T00:36:49.335Z,76.97
2022-08-26T00:39:14.691Z,77.19
2022-08-26T00:41:41.359Z,77.33
2022-08-26T00:44:04.358Z,77.41
2022-08-26T00:46:34.098Z,77.30
2022-08-26T00:49:11.999Z,77.39
2022-08-26T00:51:40.207Z,77.38
2022-08-26T00:54:06.740Z,77.74
2022-08-26T00:56:38.246Z,77.91
2022-08-26T00:59:03.485Z,77.88
2022-08-26T01:01:28.283Z,78.02
2022-08-26T01:03:55.547Z,78.19
2022-08-26T01:06:19.060Z,78.07
2022-08-26T01:08:41.920Z,78.41
2022-08-26T01:11:05.517Z,78.48
2022-08-26T01:13:30.574Z,78.34
2022-08-26T01:15:56.713Z,78.60
2022-08-26T01:18:20.123Z,78.70
2022-08-26T01:20:42.816Z,78.92
2022-08-26T01:23:09.187Z,79.02
2022-08-26T01:25:35.059Z,79.27
2022-08-26T01:28:02.118Z,79.25
2022-08-26T01:30:28.066Z,79.28
2022-08-26T01:32:52.227Z,79.14
2022-08-26T01:35:14.953Z,79.31
2022-08-26T01:37:40.495Z,79.24
2022-08-26T01:40:06.055Z,79.15
2022-08-26T01:42:29.287Z,79.35
2022-08-26T01:44:57.691Z,79.68
2022-08-26T01:47:23.028Z,79.58
2022-08-26T01:49:48.027Z,79.99
2022-08-26T01:52:20.675Z,79.91
2022-08-26T01:54:46.397Z,80.30
2022-08-26T01:57:15.120Z,80.42
2022-08-26T01:59:38.552Z,80.29
2022-08-26T02:02:02.100Z,80.36
2022-08-26T02:04:36.373Z,80.88
2022-08-26T02:07:02.208Z,80.82
2022-08-26T02:09:25.685Z,81.56
2022-08-26T02:11:51.050Z,81.45
2022-08-26T02:14:19.456Z,81.32
2022-08-26T02:16:45.656Z,81.33
2022-08-26T02:19:18.683Z,81.21
2022-08-26T02:21:43.748Z,80.81
2022-08-26T02:24:13.077Z,81.25
2022-08-26T02:26:35.844Z,81.46
2022-08-26T02:29:05.300Z,81.66
2022-08-26T02:31:30.494Z,82.38
2022-08-26T02:33:53.294Z,82.78
2022-08-26T02:36:22.471Z,83.27
2022-08-26T02:38:46.217Z,82.89
2022-08-26T02:41:10.251Z,83.14
2022-08-26T02:43:33.555Z,83.33
2022-08-26T02:45:56.140Z,83.83
2022-08-26T02:48:21.470Z,83.56
2022-08-26T02:50:45.236Z,83.56
2022-08-26T02:53:08.466Z,83.34
2022-08-26T02:55:32.167Z,83.41
2022-08-26T02:57:55.832Z,83.77
2022-08-26T03:00:18.629Z,83.61
2022-08-26T03:02:41.284Z,83.56
2022-08-26T03:05:04.766Z,83.42
2022-08-26T03:07:27.588Z,84.14
2022-08-26T03:09:50.432Z,83.84
2022-08-26T03:12:14.277Z,83.98
2022-08-26T03:14:36.873Z,84.22
2022-08-26T03:16:59.602Z,83.88
2022-08-26T03:19:24.204Z,83.41
2022-08-26T03:21:47.481Z,83.34
2022-08-26T03:24:11.477Z,83.86
2022-08-26T03:26:34.031Z,84.03
2022-08-26T03:29:15.648Z,84.11
2022-08-26T03:31:39.442Z,84.32
2022-08-26T03:34:03.540Z,84.23
2022-08-26T03:36:26.760Z,84.26
2022-08-26T03:38:49.640Z,84.58
2022-08-26T03:41:12.434Z,85.02
2022-08-26T03:44:01.556Z,85.72
2022-08-26T03:46:24.769Z,86.05
2022-08-26T03:48:49.555Z,86.63
2022-08-26T03:51:18.334Z,86.85
2022-08-26T03:53:42.371Z,86.95
2022-08-26T03:56:06.617Z,86.61
2022-08-26T03:58:29.337Z,86.76
2022-08-26T04:00:55.574Z,86.82
2022-08-26T04:03:41.076Z,86.66
2022-08-26T04:06:03.987Z,86.53
2022-08-26T04:08:26.476Z,86.16
2022-08-26T04:10:50.766Z,86.40
2022-08-26T04:13:13.866Z,86.46
2022-08-26T04:15:36.692Z,86.41
2022-08-26T04:17:59.421Z,86.10
2022-08-26T04:22:58.519Z,85.48
2022-08-26T04:25:22.550Z,85.22
2022-08-26T04:27:46.989Z,84.93
2022-08-26T04:30:11.529Z,84.62
2022-08-26T04:32:34.516Z,84.08
2022-08-26T04:34:57.305Z,83.50
2022-08-26T04:37:20.632Z,83.13
2022-08-26T04:39:44.651Z,82.96
2022-08-26T04:42:08.043Z,82.68
2022-08-26T04:44:31.837Z,82.75
2022-08-26T04:46:54.881Z,82.28
2022-08-26T04:49:18.605Z,81.95
2022-08-26T04:51:41.402Z,81.37
2022-08-26T04:54:07.337Z,80.90
2022-08-26T04:56:34.068Z,80.78
2022-08-26T04:58:57.131Z,79.48
2022-08-26T05:01:21.108Z,78.83
2022-08-26T05:03:44.671Z,78.64
2022-08-26T05:06:07.541Z,78.64
2022-08-26T05:08:32.309Z,78.41
2022-08-26T05:10:56.392Z,78.29
2022-08-26T05:13:21.112Z,77.72
2022-08-26T05:15:45.283Z,77.79
2022-08-26T05:18:08.870Z,77.80
2022-08-26T05:20:35.155Z,77.26
2022-08-26T05:23:01.953Z,77.00
2022-08-26T05:25:24.512Z,76.53
2022-08-26T05:27:50.129Z,75.80
2022-08-26T05:30:13.057Z,73.90
2022-08-26T05:32:35.773Z,70.29
2022-08-26T05:34:59.577Z,66.51
2022-08-26T05:37:23.689Z,64.14
2022-08-26T05:39:51.153Z,63.03
2022-08-26T05:42:15.647Z,64.46
2022-08-26T05:44:53.957Z,64.75
2022-08-26T05:47:19.049Z,66.65
2022-08-26T05:49:43.756Z,67.04
2022-08-26T05:52:14.221Z,66.86
2022-08-26T05:54:39.620Z,67.54
2022-08-26T05:57:02.907Z,67.10
2022-08-26T05:59:27.020Z,67.09
2022-08-26T06:01:53.826Z,67.55
2022-08-26T06:04:20.184Z,66.62
2022-08-26T06:06:43.883Z,66.78
2022-08-26T06:09:11.396Z,66.23
2022-08-26T06:11:36.390Z,66.50
2022-08-26T06:14:03.814Z,65.41
2022-08-26T06:16:28.324Z,65.78
2022-08-26T06:18:53.459Z,64.46
2022-08-26T06:21:28.135Z,64.69
2022-08-26T06:24:11.848Z,63.35
2022-08-26T06:26:35.948Z,64.83
2022-08-26T06:28:59.969Z,64.08
2022-08-26T06:31:25.589Z,64.53
2022-08-26T06:33:48.706Z,64.67
2022-08-26T06:36:20.774Z,63.50
2022-08-26T06:38:43.846Z,63.51
2022-08-26T06:41:11.388Z,63.23
2022-08-26T06:43:35.217Z,62.57
2022-08-26T06:46:04.832Z,62.67
2022-08-26T06:48:27.732Z,62.70
2022-08-26T06:50:50.904Z,57.26
2022-08-26T06:53:14.472Z,56.53
2022-08-26T06:55:46.272Z,56.27
2022-08-26T06:58:09.607Z,55.73
2022-08-26T07:00:34.087Z,56.67
2022-08-26T07:02:56.823Z,57.54
2022-08-26T07:05:19.534Z,55.41
2022-08-26T07:07:42.224Z,55.90
2022-08-26T07:10:08.555Z,55.88
2022-08-26T07:12:31.149Z,54.60
2022-08-26T07:14:53.735Z,54.49
2022-08-26T07:17:16.673Z,55.73
2022-08-26T07:19:39.288Z,54.32
2022-08-26T07:22:06.952Z,53.71
2022-08-26T07:24:38.423Z,53.54
2022-08-26T07:27:05.484Z,53.62
2022-08-26T07:29:29.293Z,53.45
2022-08-26T07:31:52.055Z,52.94
2022-08-26T07:34:15.001Z,54.02
2022-08-26T07:36:38.987Z,54.33
2022-08-26T07:39:01.857Z,53.41
2022-08-26T07:41:25.791Z,53.09
2022-08-26T07:43:48.662Z,52.63
2022-08-26T07:46:18.408Z,52.60
2022-08-26T07:48:51.316Z,53.38
2022-08-26T07:51:15.540Z,53.69
2022-08-26T07:53:38.369Z,52.91
2022-08-26T07:56:01.164Z,52.63
2022-08-26T07:58:23.908Z,52.05
2022-08-26T08:00:47.504Z,52.13
2022-08-26T08:03:11.747Z,52.23
2022-08-26T08:05:34.664Z,52.38
2022-08-26T08:08:19.741Z,54.36
2022-08-26T08:10:40.198Z,52.26
2022-08-26T08:13:07.185Z,52.33
2022-08-26T08:15:35.508Z,51.46
2022-08-26T08:18:00.654Z,51.99
2022-08-26T08:20:24.460Z,50.58
2022-08-26T08:22:47.070Z,50.12
2022-08-26T08:25:11.282Z,49.86
2022-08-26T08:27:35.474Z,50.26
2022-08-26T08:29:58.250Z,50.42
2022-08-26T08:32:22.443Z,50.89
2022-08-26T08:34:46.912Z,48.78
2022-08-26T08:37:10.871Z,48.19
2022-08-26T08:39:33.711Z,48.15
2022-08-26T08:42:14.177Z,48.46
2022-08-26T08:44:40.935Z,49.79
2022-08-26T08:47:11.399Z,47.37
2022-08-26T08:49:34.637Z,47.57
2022-08-26T08:52:04.246Z,48.28
2022-08-26T08:54:28.229Z,47.52
2022-08-26T08:56:57.667Z,45.28
2022-08-26T08:59:25.297Z,44.31
2022-08-26T09:01:53.977Z,44.61
2022-08-26T09:04:38.132Z,44.46
2022-08-26T09:07:03.466Z,45.98
2022-08-26T09:09:38.555Z,45.07
2022-08-26T09:12:02.296Z,45.86
2022-08-26T09:14:25.992Z,44.17
2022-08-26T09:17:04.759Z,43.19
2022-08-26T09:19:48.272Z,44.59
2022-08-26T09:22:11.334Z,44.63
2022-08-26T09:24:39.619Z,46.40
2022-08-26T09:27:05.229Z,44.79
2022-08-26T09:29:31.243Z,44.25
2022-08-26T09:32:13.998Z,45.40
2022-08-26T09:34:37.833Z,43.42
2022-08-26T09:37:00.747Z,44.68
2022-08-26T09:39:30.017Z,43.25
2022-08-26T09:42:22.434Z,43.66
2022-08-26T09:44:54.125Z,43.33
2022-08-26T09:47:23.018Z,43.41
2022-08-26T09:49:57.875Z,43.62
2022-08-26T09:52:23.773Z,44.61
2022-08-26T09:55:02.372Z,43.82
2022-08-26T09:57:29.234Z,43.42
2022-08-26T09:59:52.497Z,44.28
2022-08-26T10:02:33.209Z,43.58
2022-08-26T10:04:57.733Z,43.49
2022-08-26T10:07:51.228Z,42.90
2022-08-26T10:10:45.706Z,42.25
2022-08-26T10:13:15.055Z,42.64
2022-08-26T10:15:54.250Z,43.18
2022-08-26T10:18:25.943Z,42.74
2022-08-26T10:21:04.328Z,42.34
2022-08-26T10:23:37.886Z,42.25
2022-08-26T10:26:18.044Z,42.08
2022-08-26T10:28:48.156Z,42.57
2022-08-26T10:31:28.497Z,42.90
2022-08-26T10:33:53.345Z,43.59
2022-08-26T10:37:05.083Z,42.61
2022-08-26T10:39:47.112Z,42.84
2022-08-26T10:42:33.444Z,42.49
2022-08-26T10:45:02.538Z,41.02
2022-08-26T10:47:35.273Z,40.83
2022-08-26T10:50:03.237Z,40.17
2022-08-26T10:52:47.775Z,40.42
2022-08-26T10:55:37.407Z,41.20
2022-08-26T10:58:13.874Z,39.90
2022-08-26T11:01:17.014Z,40.63
2022-08-26T11:04:04.221Z,39.78
2022-08-26T11:06:29.728Z,39.67
2022-08-26T11:08:57.929Z,39.72
2022-08-26T11:11:40.450Z,40.17
2022-08-26T11:14:29.349Z,37.71
2022-08-26T11:16:57.021Z,37.77
2022-08-26T11:20:00.724Z,36.94
2022-08-26T11:22:32.448Z,36.65
2022-08-26T11:24:55.118Z,37.28
2022-08-26T11:27:38.996Z,37.40
2022-08-26T11:30:07.613Z,37.98
2022-08-26T11:32:39.283Z,39.76
2022-08-26T11:35:05.592Z,37.39
2022-08-26T11:37:41.304Z,38.28
2022-08-26T11:40:09.379Z,38.00
2022-08-26T11:42:41.665Z,37.81
2022-08-26T11:45:16.001Z,37.84
2022-08-26T11:47:38.704Z,37.14
2022-08-26T11:50:10.048Z,36.90
2022-08-26T11:52:32.843Z,37.18
2022-08-26T11:55:01.775Z,36.42
2022-08-26T11:57:24.443Z,36.86
2022-08-26T11:59:47.607Z,36.76
2022-08-26T12:02:17.869Z,37.05
2022-08-26T12:04:46.326Z,37.04
2022-08-26T12:07:09.969Z,36.11
2022-08-26T12:09:35.023Z,35.38
2022-08-26T12:12:23.915Z,35.60
2022-08-26T12:14:47.965Z,36.89
2022-08-26T12:17:14.667Z,36.31
2022-08-26T12:19:38.378Z,34.42
2022-08-26T12:22:20.981Z,35.26
2022-08-26T12:24:51.147Z,36.25
2022-08-26T12:27:28.947Z,36.38
2022-08-26T12:30:02.576Z,35.77
2022-08-26T12:32:25.792Z,35.34
2022-08-26T12:34:49.058Z,35.82
2022-08-26T12:37:14.063Z,36.70
2022-08-26T12:39:40.245Z,35.48
2022-08-26T12:42:26.337Z,34.96
2022-08-26T12:44:53.905Z,35.20
2022-08-26T12:47:44.233Z,35.43
2022-08-26T12:50:13.203Z,35.01
2022-08-26T12:52:52.346Z,35.06
2022-08-26T12:55:45.345Z,35.53
2022-08-26T12:58:37.511Z,33.59
2022-08-26T13:01:09.173Z,33.91
2022-08-26T13:03:34.672Z,34.00
2022-08-26T13:06:31.330Z,34.49
2022-08-26T13:09:06.084Z,35.25
2022-08-26T13:11:30.462Z,34.70
2022-08-26T13:14:15.533Z,35.83
2022-08-26T13:16:47.654Z,35.17
2022-08-26T13:19:22.087Z,35.79
2022-08-26T13:21:50.739Z,35.03
2022-08-26T13:24:25.875Z,34.81
2022-08-26T13:26:49.451Z,35.66
2022-08-26T13:29:13.278Z,35.71
2022-08-26T13:31:36.943Z,35.79
2022-08-26T13:34:00.183Z,35.83
2022-08-26T13:36:23.674Z,36.32
2022-08-26T13:38:48.341Z,35.98
2022-08-26T13:41:14.876Z,34.82
2022-08-26T13:43:38.591Z,34.26
2022-08-26T13:46:01.984Z,34.20
2022-08-26T13:48:25.576Z,34.15
2022-08-26T13:50:48.505Z,34.86
2022-08-26T13:53:11.205Z,34.25
2022-08-26T13:55:34.000Z,34.38
2022-08-26T13:57:56.823Z,35.99
2022-08-26T14:00:20.446Z,33.82
2022-08-26T14:02:43.191Z,34.68
2022-08-26T14:05:06.588Z,34.69
2022-08-26T14:07:29.432Z,35.72
2022-08-26T14:09:52.191Z,34.06
2022-08-26T14:12:14.773Z,33.94
2022-08-26T14:14:37.328Z,32.97
2022-08-26T14:17:00.625Z,34.01
2022-08-26T14:19:24.439Z,34.82
2022-08-26T14:21:47.199Z,34.76
2022-08-26T14:24:11.666Z,34.88
2022-08-26T14:26:34.544Z,34.83
2022-08-26T14:29:02.673Z,33.86
2022-08-26T14:31:27.047Z,34.33
2022-08-26T14:33:49.856Z,33.89
2022-08-26T14:36:28.693Z,33.94
2022-08-26T14:38:52.260Z,34.05
2022-08-26T14:41:17.305Z,34.10
2022-08-26T14:43:48.777Z,33.85
2022-08-26T14:46:13.898Z,33.76
2022-08-26T14:48:36.477Z,33.45
2022-08-26T14:50:59.115Z,34.01
2022-08-26T14:53:40.757Z,33.65
2022-08-26T14:56:03.710Z,33.91
2022-08-26T14:58:33.816Z,33.12
2022-08-26T15:00:57.893Z,34.75
2022-08-26T15:03:23.615Z,33.56
2022-08-26T15:05:48.063Z,33.24
2022-08-26T15:08:11.208Z,33.06
2022-08-26T15:10:34.116Z,33.26
2022-08-26T15:12:56.631Z,33.02
2022-08-26T15:15:20.037Z,33.15
2022-08-26T15:17:43.336Z,32.96
2022-08-26T15:20:09.313Z,34.14
2022-08-26T15:22:32.066Z,32.90
2022-08-26T15:24:58.143Z,33.21
2022-08-26T15:27:20.956Z,32.73
2022-08-26T15:29:44.055Z,33.34
2022-08-26T15:32:06.693Z,34.08
2022-08-26T15:34:29.262Z,35.53
2022-08-26T15:36:55.034Z,35.62
2022-08-26T15:39:19.528Z,35.53
2022-08-26T15:41:42.164Z,35.83
2022-08-26T15:44:06.385Z,35.93
2022-08-26T15:46:29.324Z,35.79
2022-08-26T15:48:52.221Z,35.78
2022-08-26T15:51:24.559Z,36.57
2022-08-26T15:53:47.604Z,36.92
2022-08-26T15:56:10.338Z,38.01
2022-08-26T15:58:33.249Z,37.88
2022-08-26T16:00:58.874Z,37.33
2022-08-26T16:03:22.633Z,37.13
2022-08-26T16:05:46.534Z,37.50
2022-08-26T16:08:10.231Z,36.62
2022-08-26T16:10:35.933Z,36.31
2022-08-26T16:12:59.019Z,36.12
2022-08-26T16:15:22.063Z,37.43
2022-08-26T16:17:45.267Z,37.71
2022-08-26T16:20:08.951Z,38.20
2022-08-26T16:22:31.922Z,38.55
2022-08-26T16:25:01.501Z,38.36
2022-08-26T16:27:27.613Z,38.06
2022-08-26T16:29:50.712Z,37.73
2022-08-26T16:32:13.396Z,38.58
2022-08-26T16:34:36.237Z,38.10
2022-08-26T16:37:00.543Z,37.80
2022-08-26T16:39:23.105Z,38.12
2022-08-26T16:41:45.813Z,39.32
2022-08-26T16:44:08.983Z,40.25
2022-08-26T16:46:32.163Z,40.65
2022-08-26T16:48:57.171Z,40.65
2022-08-26T16:51:24.960Z,41.25
2022-08-26T16:53:47.754Z,41.90
2022-08-26T16:56:14.744Z,40.22
2022-08-26T16:58:37.492Z,41.50
2022-08-26T17:01:00.177Z,42.30
2022-08-26T17:03:22.731Z,43.11
2022-08-26T17:05:45.500Z,44.15
2022-08-26T17:08:08.209Z,45.05
2022-08-26T17:10:31.593Z,45.03
2022-08-26T17:12:54.938Z,45.24
2022-08-26T17:15:18.413Z,45.30
2022-08-26T17:17:41.759Z,46.53
2022-08-26T17:20:09.575Z,45.80
2022-08-26T17:22:34.620Z,46.25
2022-08-26T17:24:57.695Z,46.40
2022-08-26T17:27:20.430Z,46.04
2022-08-26T17:29:43.188Z,44.74
2022-08-26T17:32:05.902Z,44.45
2022-08-26T17:34:28.691Z,43.64
2022-08-26T17:36:51.841Z,42.19
2022-08-26T17:39:14.986Z,42.55
2022-08-26T17:41:38.876Z,43.19
2022-08-26T17:44:01.525Z,44.32
2022-08-26T17:46:24.648Z,43.23
2022-08-26T17:48:48.387Z,43.79
2022-08-26T17:51:13.711Z,44.14
2022-08-26T17:53:37.243Z,44.44
2022-08-26T17:56:00.105Z,45.26
2022-08-26T17:58:24.916Z,46.17
2022-08-26T18:00:50.535Z,46.79
2022-08-26T18:03:13.708Z,47.96
2022-08-26T18:05:36.292Z,48.12
2022-08-26T18:07:58.923Z,48.01
2022-08-26T18:10:22.345Z,48.32
2022-08-26T18:12:45.265Z,48.72
2022-08-26T18:15:09.842Z,48.11
2022-08-26T18:17:32.777Z,46.94
2022-08-26T18:19:55.557Z,49.60
2022-08-26T18:22:18.480Z,47.17
2022-08-26T18:24:41.415Z,47.75
2022-08-26T18:27:19.179Z,48.14
2022-08-26T18:29:45.302Z,47.14
2022-08-26T18:32:08.802Z,47.69
2022-08-26T18:34:31.675Z,48.24
2022-08-26T18:36:54.692Z,48.12
2022-08-26T18:39:19.259Z,48.60
2022-08-26T18:41:49.216Z,49.21
2022-08-26T18:44:14.094Z,48.61
2022-08-26T18:46:36.955Z,50.35
2022-08-26T18:48:59.834Z,50.30
2022-08-26T18:51:29.612Z,49.52
2022-08-26T18:53:53.197Z,50.98
2022-08-26T18:56:18.163Z,49.82
2022-08-26T18:58:41.522Z,50.36
2022-08-26T19:01:04.204Z,50.78
2022-08-26T19:03:28.691Z,50.99
2022-08-26T19:05:51.346Z,51.85
2022-08-26T19:08:14.124Z,52.78
2022-08-26T19:10:40.045Z,52.72
2022-08-26T19:13:03.324Z,53.20
2022-08-26T19:15:29.133Z,54.08
2022-08-26T19:17:51.735Z,52.56
2022-08-26T19:20:14.548Z,53.73
2022-08-26T19:22:37.416Z,52.85
2022-08-26T19:25:00.871Z,51.50
2022-08-26T19:27:23.504Z,51.44
2022-08-26T19:29:46.755Z,52.15
2022-08-26T19:32:09.318Z,52.04
2022-08-26T19:34:32.095Z,53.02
2022-08-26T19:36:56.932Z,52.27
2022-08-26T19:39:20.990Z,52.34
2022-08-26T19:41:44.196Z,52.11
2022-08-26T19:44:10.418Z,51.89
2022-08-26T19:46:33.099Z,53.17
2022-08-26T19:48:58.086Z,53.04
2022-08-26T19:51:26.739Z,54.18
2022-08-26T19:53:49.594Z,53.56
2022-08-26T19:56:13.141Z,53.66
2022-08-26T19:58:35.772Z,53.25
2022-08-26T20:00:58.351Z,54.31
2022-08-26T20:03:20.967Z,54.03
2022-08-26T20:05:43.489Z,54.23
2022-08-26T20:08:06.112Z,54.73
2022-08-26T20:10:29.036Z,54.80
2022-08-26T20:12:52.310Z,55.09
2022-08-26T20:15:15.338Z,54.84
2022-08-26T20:17:39.068Z,54.91
2022-08-26T20:20:33.413Z,56.55
2022-08-26T20:22:56.541Z,55.55
2022-08-26T20:25:20.040Z,57.00
2022-08-26T20:27:42.831Z,57.01
2022-08-26T20:30:07.436Z,55.61
2022-08-26T20:32:35.026Z,55.59
2022-08-26T20:34:58.040Z,56.83
2022-08-26T20:37:21.836Z,56.72
2022-08-26T20:39:45.369Z,56.83
2022-08-26T20:42:19.898Z,57.73
2022-08-26T20:44:43.239Z,55.76
2022-08-26T20:47:17.030Z,54.74
2022-08-26T20:49:39.807Z,55.16
2022-08-26T20:52:05.462Z,56.99
2022-08-26T20:54:28.744Z,56.56
2022-08-26T20:56:51.979Z,56.88
2022-08-26T20:59:16.897Z,53.92
2022-08-26T21:01:42.272Z,54.48
2022-08-26T21:04:08.765Z,54.66
2022-08-26T21:06:35.046Z,52.89
2022-08-26T21:08:57.733Z,54.04
2022-08-26T21:11:20.731Z,52.65
2022-08-26T21:14:03.873Z,52.54
2022-08-26T21:16:26.416Z,54.45
2022-08-26T21:18:50.079Z,52.75
2022-08-26T21:21:13.183Z,53.69
2022-08-26T21:23:36.666Z,53.74
2022-08-26T21:26:11.039Z,52.76
2022-08-26T21:28:39.895Z,55.13
2022-08-26T21:31:07.496Z,53.32
2022-08-26T21:33:30.442Z,53.17
2022-08-26T21:35:54.453Z,54.15
2022-08-26T21:38:17.165Z,55.13
2022-08-26T21:40:39.962Z,55.30
2022-08-26T21:43:02.654Z,55.67
2022-08-26T21:45:25.280Z,55.54
2022-08-26T21:47:47.969Z,55.94
2022-08-26T21:50:11.038Z,54.88
2022-08-26T21:52:34.076Z,55.19
2022-08-26T21:55:01.275Z,56.59
2022-08-26T21:57:23.928Z,56.09
2022-08-26T21:59:46.478Z,55.70
2022-08-26T22:02:09.159Z,56.05
2022-08-26T22:04:31.743Z,56.64
2022-08-26T22:06:57.528Z,57.06
2022-08-26T22:09:25.162Z,56.83
2022-08-26T22:11:48.169Z,59.14
2022-08-26T22:14:11.428Z,57.44
2022-08-26T22:16:34.422Z,56.74
2022-08-26T22:18:57.133Z,57.28
2022-08-26T22:21:23.801Z,58.28
2022-08-26T22:23:47.548Z,58.05
2022-08-26T22:26:12.105Z,58.72
2022-08-26T22:28:36.181Z,57.67
2022-08-26T22:30:59.475Z,57.23
2022-08-26T22:33:23.122Z,58.43
2022-08-26T22:35:48.301Z,57.34
2022-08-26T22:38:11.373Z,55.17
2022-08-26T22:40:35.487Z,56.24
2022-08-26T22:43:00.352Z,57.33
2022-08-26T22:45:23.079Z,57.82
2022-08-26T22:47:45.897Z,57.14
2022-08-26T22:50:09.268Z,56.83
2022-08-26T22:52:32.058Z,56.87
2022-08-26T22:54:55.025Z,58.12
2022-08-26T22:57:17.785Z,57.98
2022-08-26T22:59:41.033Z,59.51
2022-08-26T23:02:05.182Z,59.87
2022-08-26T23:04:30.960Z,56.64
2022-08-26T23:06:57.474Z,55.69
2022-08-26T23:09:21.250Z,55.50
2022-08-26T23:11:46.316Z,55.52
2022-08-26T23:14:08.872Z,60.38
2022-08-26T23:16:37.856Z,58.27
2022-08-26T23:19:02.882Z,58.94
2022-08-26T23:21:25.540Z,58.57
2022-08-26T23:23:48.263Z,59.78
2022-08-26T23:26:13.458Z,60.72
2022-08-26T23:28:39.728Z,59.25
2022-08-26T23:31:02.422Z,60.34
2022-08-26T23:33:45.267Z,62.52
2022-08-26T23:36:08.493Z,62.13
2022-08-26T23:38:31.860Z,61.15
2022-08-26T23:40:55.769Z,60.99
2022-08-26T23:43:18.284Z,59.97
2022-08-26T23:45:41.095Z,60.50
2022-08-26T23:48:05.993Z,60.61
2022-08-26T23:50:48.878Z,61.52
2022-08-26T23:53:19.314Z,60.06
2022-08-26T23:55:41.988Z,59.66
2022-08-26T23:58:06.156Z,59.56
